createdAt,value
2019-06-07T05:08:57.229Z,70.29
2019-06-07T05:10:07.358Z,70.01
2019-06-07T05:11:17.255Z,69.43
2019-06-07T05:12:27.450Z,68.57
2019-06-07T05:13:46.728Z,68.37
2019-06-07T05:14:56.850Z,67.9
2019-06-07T05:16:06.987Z,67.9
2019-06-07T05:17:17.191Z,66.55
2019-06-07T05:18:27.339Z,65.88
2019-06-07T05:19:47.146Z,65.88
2019-06-07T05:20:57.009Z,65.49
2019-06-07T05:22:08.026Z,64.09
2019-06-07T14:11:46.766Z,44.46
2019-06-07T14:12:59.737Z,44.37
2019-06-07T14:14:09.919Z,44.56
2019-06-07T14:15:20.535Z,44.65
2019-06-07T14:16:37.475Z,44.37
2019-06-07T14:17:47.633Z,44.17
2019-06-07T14:18:57.805Z,44.19
2019-06-07T14:20:08.647Z,44.19
2019-06-07T14:21:20.360Z,44.19
2019-06-07T14:22:33.642Z,44.07
2019-06-07T14:23:51.456Z,44
2019-06-07T14:25:01.632Z,43.98
2019-06-07T14:26:11.780Z,44.75
2019-06-07T14:27:23.316Z,44.75
2019-06-07T14:28:36.743Z,44.75
2019-06-07T14:29:46.896Z,44.37
2019-06-07T14:30:57.050Z,44.73
2019-06-07T14:32:07.225Z,44.73
2019-06-07T14:33:17.401Z,43.95
2019-06-07T14:34:35.225Z,43.98
2019-06-07T14:35:45.123Z,44.07
2019-06-07T14:36:55.297Z,44.17
2019-06-07T14:38:05.467Z,44.07
2019-06-07T14:39:15.637Z,44.65
2019-06-07T14:40:25.810Z,44.64
2019-06-07T14:41:37.401Z,44.65
2019-06-07T14:42:47.586Z,44.65
2019-06-07T14:43:57.749Z,44.46
2019-06-07T14:45:08.521Z,44.54
2019-06-07T14:46:18.671Z,44.92
2019-06-07T14:47:30.400Z,44.92
2019-06-07T14:48:41.989Z,45.31
2019-06-07T14:49:52.276Z,45.8
2019-06-07T14:51:02.165Z,45.31
2019-06-07T14:52:12.174Z,45.21
2019-06-07T14:53:22.331Z,45.41
2019-06-07T14:54:39.140Z,45.41
2019-06-07T14:55:49.621Z,45.31
2019-06-07T14:57:02.993Z,45.53
2019-06-07T14:58:13.434Z,45.24
2019-06-07T14:59:23.606Z,45.53
2019-06-07T15:00:37.059Z,45.8
2019-06-07T15:01:47.215Z,44.95
2019-06-07T15:02:57.427Z,45.62
2019-06-07T15:04:07.604Z,45.82
2019-06-07T15:05:17.766Z,45.82
2019-06-07T15:06:31.041Z,45.62
2019-06-07T15:07:43.351Z,45.61
2019-06-07T15:08:54.163Z,45.8
2019-06-07T15:10:04.354Z,45.8
2019-06-07T15:11:14.284Z,45.51
2019-06-07T15:12:29.293Z,45.89
2019-06-07T15:13:42.882Z,45.62
2019-06-07T15:14:53.049Z,45.53
2019-06-07T15:16:03.198Z,45.31
2019-06-07T15:17:13.361Z,45.72
2019-06-07T15:18:23.518Z,45.92
2019-06-07T15:19:36.977Z,45.82
2019-06-07T15:20:47.221Z,45.72
2019-06-07T15:21:56.946Z,45.72
2019-06-07T15:23:06.749Z,45.62
2019-06-07T15:24:16.924Z,45.72
2019-06-07T15:25:27.156Z,45.72
2019-06-07T15:26:38.940Z,45.7
2019-06-07T15:27:49.076Z,45.41
2019-06-07T15:28:59.217Z,45.7
2019-06-07T15:30:13.235Z,45.61
2019-06-07T15:31:23.590Z,45.89
2019-06-07T15:32:39.343Z,45.89
2019-06-07T15:33:49.711Z,46.28
2019-06-07T15:34:59.894Z,46.28
2019-06-07T15:36:09.820Z,45.89
2019-06-07T15:37:19.980Z,46.19
2019-06-07T15:38:33.062Z,46.09
2019-06-07T15:39:45.042Z,46.28
2019-06-07T15:40:55.204Z,46.48
2019-06-07T15:42:05.365Z,45.99
2019-06-07T15:43:15.743Z,46.28
2019-06-07T15:44:25.650Z,46.28
2019-06-07T15:45:37.971Z,46.48
2019-06-07T15:46:48.150Z,46.38
2019-06-07T15:47:58.359Z,46.19
2019-06-07T15:49:08.515Z,46.09
2019-06-07T15:50:18.663Z,46.28
2019-06-07T15:51:34.445Z,46.48
2019-06-07T15:52:46.413Z,46.09
2019-06-07T15:53:56.572Z,46.28
2019-06-07T15:55:06.769Z,46.19
2019-06-07T15:56:16.923Z,46.58
2019-06-07T15:57:27.074Z,46.48
2019-06-07T15:58:43.810Z,46.48
2019-06-07T15:59:53.978Z,46.67
2019-06-07T16:01:04.474Z,46.38
2019-06-07T16:02:14.667Z,46.94
2019-06-07T16:03:25.032Z,46.75
2019-06-07T16:04:41.953Z,46.84
2019-06-07T16:05:54.070Z,47.03
2019-06-07T16:07:04.234Z,46.67
2019-06-07T16:08:14.399Z,46.65
2019-06-07T16:09:24.539Z,46.67
2019-06-07T16:10:36.704Z,46.65
2019-06-07T16:11:48.565Z,46.67
2019-06-07T16:13:03.297Z,46.67
2019-06-07T16:14:13.462Z,46.94
2019-06-07T16:15:23.604Z,47.35
2019-06-07T16:16:35.017Z,46.96
2019-06-07T16:17:46.841Z,46.96
2019-06-07T16:18:56.763Z,47.03
2019-06-07T16:20:07.003Z,47.23
2019-06-07T16:21:17.234Z,47.62
2019-06-07T16:22:27.255Z,47.33
2019-06-07T16:23:40.317Z,47.81
2019-06-07T16:24:52.286Z,47.72
2019-06-07T16:26:02.453Z,47.72
2019-06-07T16:27:12.387Z,47.52
2019-06-07T16:28:22.665Z,48.2
2019-06-07T16:29:32.796Z,48
2019-06-07T16:30:45.727Z,48.39
2019-06-07T16:31:55.882Z,48.2
2019-06-07T16:33:06.055Z,48.1
2019-06-07T16:34:16.233Z,48.66
2019-06-07T16:35:26.392Z,48.66
2019-06-07T16:36:38.620Z,48.66
2019-06-07T16:37:54.699Z,48.66
2019-06-07T16:39:04.933Z,49.05
2019-06-07T16:40:15.162Z,48.95
2019-06-07T16:41:25.366Z,48.97
2019-06-07T16:42:36.287Z,48.59
2019-06-07T16:43:48.949Z,48.69
2019-06-07T16:44:59.196Z,48.3
2019-06-07T16:46:09.426Z,48.49
2019-06-07T16:47:19.579Z,48.49
2019-06-07T16:48:29.827Z,48.76
2019-06-07T16:49:41.196Z,48.97
2019-06-07T16:50:52.898Z,48.78
2019-06-07T16:52:03.089Z,48.69
2019-06-07T16:53:12.996Z,48.69
2019-06-07T16:54:23.197Z,48.97
2019-06-07T16:55:33.353Z,48.97
2019-06-07T16:56:51.361Z,48.69
2019-06-07T16:58:01.616Z,48.97
2019-06-07T16:59:11.763Z,48.76
2019-06-07T17:00:21.964Z,48.85
2019-06-07T17:01:32.238Z,48.85
2019-06-07T17:02:42.788Z,48.76
2019-06-07T17:03:54.930Z,48.76
2019-06-07T17:05:05.356Z,48.95
2019-06-07T17:06:15.502Z,48.76
2019-06-07T17:07:25.641Z,49.05
2019-06-07T17:08:35.801Z,49.24
2019-06-07T17:09:49.802Z,49.44
2019-06-07T17:10:59.711Z,49.34
2019-06-07T17:12:09.988Z,49.24
2019-06-07T17:13:35.243Z,49.15
2019-06-07T17:14:47.093Z,49.15
2019-06-07T17:15:57.232Z,49.05
2019-06-07T17:17:07.484Z,49.24
2019-06-07T17:18:17.626Z,49.44
2019-06-07T17:19:27.846Z,49.63
2019-06-07T17:20:38.998Z,49.34
2019-06-07T17:21:52.026Z,49.63
2019-06-07T17:23:02.477Z,49.44
2019-06-07T17:24:12.735Z,49.34
2019-06-07T17:25:22.865Z,49.82
2019-06-07T17:26:33.008Z,49.63
2019-06-07T17:27:46.308Z,49.73
2019-06-07T17:28:58.048Z,50.02
2019-06-07T17:30:08.206Z,49.92
2019-06-07T17:31:18.343Z,49.63
2019-06-07T17:32:28.499Z,49.63
2019-06-07T17:34:04.335Z,49.7
2019-06-07T17:35:14.534Z,50.19
2019-06-07T17:36:24.705Z,50.09
2019-06-07T17:37:34.598Z,49.8
2019-06-07T17:38:51.189Z,50.29
2019-06-07T17:40:01.091Z,50.77
2019-06-07T17:41:10.859Z,50.67
2019-06-07T17:42:21.054Z,50.67
2019-06-07T17:43:31.188Z,50.38
2019-06-07T17:45:05.138Z,50.48
2019-06-07T17:46:15.276Z,50.67
2019-06-07T17:47:25.447Z,50.67
2019-06-07T17:48:35.578Z,50.48
2019-06-07T17:49:48.015Z,50.48
2019-06-07T17:50:58.207Z,50.87
2019-06-07T17:52:08.409Z,50.77
2019-06-07T17:53:18.541Z,50.77
2019-06-07T17:54:28.686Z,50.96
2019-06-07T17:55:38.584Z,50.87
2019-06-07T17:56:52.990Z,51.35
2019-06-07T17:58:03.312Z,51.35
2019-06-07T17:59:13.480Z,51.25
2019-06-07T18:00:33.392Z,51.25
2019-06-07T18:02:06.666Z,51.06
2019-06-07T18:03:23.497Z,51.45
2019-06-07T18:04:33.639Z,51.35
2019-06-07T18:05:45.006Z,51.74
2019-06-07T18:06:56.729Z,51.74
2019-06-07T18:08:06.916Z,51.93
2019-06-07T18:09:17.088Z,52.03
2019-06-07T18:10:27.241Z,51.93
2019-06-07T18:11:37.400Z,52.22
2019-06-07T18:12:50.147Z,51.93
2019-06-07T18:14:12.932Z,52.32
2019-06-07T18:15:23.131Z,51.9
2019-06-07T18:16:33.306Z,52.42
2019-06-07T18:17:44.425Z,52.03
2019-06-07T18:18:56.011Z,52.51
2019-06-07T18:20:06.166Z,52.58
2019-06-07T18:21:16.331Z,52.58
2019-06-07T18:22:26.494Z,52.68
2019-06-07T18:23:36.654Z,52.8
2019-06-07T18:24:46.826Z,53
2019-06-07T18:25:58.824Z,53.29
2019-06-07T18:27:09.820Z,53.17
2019-06-07T18:28:20.200Z,53.36
2019-06-07T18:29:30.568Z,53.55
2019-06-07T18:30:40.386Z,53.85
2019-06-07T18:31:53.047Z,53.45
2019-06-07T18:33:05.707Z,54.03
2019-06-07T18:34:15.871Z,53.94
2019-06-07T18:35:26.040Z,53.75
2019-06-07T18:36:36.203Z,54.03
2019-06-07T18:37:46.924Z,53.94
2019-06-07T18:38:59.279Z,54.43
2019-06-07T18:40:09.523Z,54.62
2019-06-07T18:41:19.705Z,54.52
2019-06-07T18:42:29.888Z,54.52
2019-06-07T18:43:40.054Z,55
2019-06-07T18:44:51.464Z,54.62
2019-06-07T18:46:02.444Z,54.81
2019-06-07T18:47:12.665Z,54.71
2019-06-07T18:48:22.824Z,55.3
2019-06-07T18:49:36.057Z,54.91
2019-06-07T18:50:46.563Z,55.2
2019-06-07T18:51:58.249Z,55.27
2019-06-07T18:53:08.420Z,55.36
2019-06-07T18:54:18.620Z,55.17
2019-06-07T18:55:28.837Z,55.17
2019-06-07T18:56:39.041Z,55.36
2019-06-07T18:57:52.117Z,55.46
2019-06-07T18:59:03.843Z,56.24
2019-06-07T19:00:14.022Z,55.85
2019-06-07T19:01:24.258Z,55.85
2019-06-07T19:02:34.424Z,56.24
2019-06-07T19:03:46.995Z,56.24
2019-06-07T19:05:00.888Z,56.43
2019-06-07T19:06:11.079Z,56.62
2019-06-07T19:07:21.330Z,56.62
2019-06-07T19:08:31.614Z,56.72
2019-06-07T19:09:41.782Z,56.88
2019-06-07T19:10:53.166Z,56.88
2019-06-07T19:12:04.683Z,56.88
2019-06-07T19:13:14.890Z,56.98
2019-06-07T19:14:39.037Z,57.18
2019-06-07T19:15:49.393Z,57.46
2019-06-07T19:17:00.818Z,57.28
2019-06-07T19:18:10.993Z,57.95
2019-06-07T19:19:21.194Z,57.66
2019-06-07T19:20:30.880Z,57.86
2019-06-07T19:21:41.097Z,57.86
2019-06-07T19:22:52.561Z,57.66
2019-06-07T19:24:04.573Z,58.04
2019-06-07T19:25:15.065Z,58.72
2019-06-07T19:26:25.238Z,58.63
2019-06-07T19:27:35.795Z,58.92
2019-06-07T19:28:46.011Z,58.72
2019-06-07T19:29:57.175Z,58.7
2019-06-07T19:31:08.812Z,59.01
2019-06-07T19:32:18.994Z,58.92
2019-06-07T19:33:29.174Z,59.47
2019-06-07T19:34:55.082Z,59.5
2019-06-07T19:36:04.938Z,59.66
2019-06-07T19:37:15.103Z,59.76
2019-06-07T19:38:24.982Z,59.86
2019-06-07T19:39:34.905Z,59.95
2019-06-07T19:40:45.076Z,59.95
2019-06-07T19:41:56.445Z,60.05
2019-06-07T19:43:07.879Z,60.34
2019-06-07T19:44:18.056Z,60.53
2019-06-07T19:45:33.089Z,60.44
2019-06-07T19:46:43.323Z,60.24
2019-06-07T19:47:54.816Z,60.24
2019-06-07T19:49:06.455Z,60.72
2019-06-07T19:50:16.698Z,61.11
2019-06-07T19:51:26.868Z,60.92
2019-06-07T19:52:37.013Z,61.27
2019-06-07T19:53:47.259Z,61.21
2019-06-07T19:55:01.390Z,61.4
2019-06-07T19:56:17.848Z,61.37
2019-06-07T19:57:27.736Z,61.66
2019-06-07T19:58:38.149Z,61.66
2019-06-07T19:59:49.334Z,61.76
2019-06-07T20:01:02.207Z,61.76
2019-06-07T20:02:12.699Z,62.15
2019-06-07T20:03:22.897Z,62.05
2019-06-07T20:04:33.041Z,62.53
2019-06-07T20:05:43.244Z,62.44
2019-06-07T20:06:54.069Z,62.44
2019-06-07T20:08:08.069Z,62.24
2019-06-07T20:09:18.223Z,62.53
2019-06-07T20:10:28.437Z,62.73
2019-06-07T20:11:38.607Z,62.24
2019-06-07T20:12:48.836Z,62.73
2019-06-07T20:14:01.027Z,62.73
2019-06-07T20:15:30.123Z,62.63
2019-06-07T20:16:40.056Z,62.63
2019-06-07T20:17:50.328Z,62.92
2019-06-07T20:19:00.698Z,63.02
2019-06-07T20:20:14.505Z,62.92
2019-06-07T20:21:27.008Z,63.02
2019-06-07T20:22:37.192Z,62.82
2019-06-07T20:23:47.358Z,62.79
2019-06-07T20:24:58.772Z,62.89
2019-06-07T20:26:11.390Z,63.47
2019-06-07T20:27:21.545Z,63.28
2019-06-07T20:28:31.710Z,63.37
2019-06-07T20:29:41.894Z,63.37
2019-06-07T20:30:54.753Z,63.37
2019-06-07T20:32:09.011Z,63.66
2019-06-07T20:33:19.201Z,63.76
2019-06-07T20:34:29.432Z,63.66
2019-06-07T20:35:39.090Z,63.56
2019-06-07T20:36:49.013Z,63.56
2019-06-07T20:38:01.486Z,63.85
2019-06-07T20:39:14.881Z,64.14
2019-06-07T20:40:27.401Z,64.53
2019-06-07T20:41:37.572Z,64.82
2019-06-07T20:42:47.362Z,65.01
2019-06-07T20:43:57.756Z,64.92
2019-06-07T20:45:10.537Z,64.63
2019-06-07T20:46:35.541Z,64.72
2019-06-07T20:47:45.734Z,64.82
2019-06-07T20:48:55.916Z,64.92
2019-06-07T20:50:11.090Z,64.53
2019-06-07T20:51:21.438Z,64.53
2019-06-07T20:52:31.621Z,64.53
2019-06-07T20:53:42.308Z,64.63
2019-06-07T20:54:52.463Z,64.72
2019-06-07T20:56:05.063Z,64.72
2019-06-07T20:57:16.958Z,64.53
2019-06-07T20:58:27.133Z,65.2
2019-06-07T20:59:37.290Z,65.3
2019-06-07T21:00:47.454Z,64.89
2019-06-07T21:01:58.668Z,65.01
2019-06-07T21:03:12.063Z,65.08
2019-06-07T21:04:22.221Z,65.56
2019-06-07T21:05:32.360Z,65.27
2019-06-07T21:06:42.533Z,65.75
2019-06-07T21:07:52.697Z,65.66
2019-06-07T21:09:05.921Z,65.66
2019-06-07T21:10:17.576Z,65.95
2019-06-07T21:11:27.834Z,65.75
2019-06-07T21:12:38.000Z,66.14
2019-06-07T21:13:48.206Z,65.85
2019-06-07T21:14:58.397Z,66.24
2019-06-07T21:16:18.477Z,66.53
2019-06-07T21:17:28.623Z,66.33
2019-06-07T21:18:38.788Z,66.43
2019-06-07T21:19:48.934Z,66.59
2019-06-07T21:21:00.272Z,66.63
2019-06-07T21:22:11.433Z,66.05
2019-06-07T21:23:21.688Z,66.4
2019-06-07T21:24:31.829Z,66.43
2019-06-07T21:25:42.011Z,66.43
2019-06-07T21:26:55.582Z,66.63
2019-06-07T21:28:09.407Z,66.63
2019-06-07T21:29:19.772Z,66.3
2019-06-07T21:30:29.932Z,66.53
2019-06-07T21:31:40.088Z,66.53
2019-06-07T21:32:50.248Z,66.33
2019-06-07T21:34:01.356Z,66.4
2019-06-07T21:35:19.479Z,66.63
2019-06-07T21:36:29.597Z,66.2
2019-06-07T21:37:39.744Z,66.3
2019-06-07T21:38:50.117Z,66.49
2019-06-07T21:40:00.254Z,66.49
2019-06-07T21:41:15.035Z,66.43
2019-06-07T21:42:25.242Z,66.24
2019-06-07T21:43:35.377Z,66.69
2019-06-07T21:44:45.587Z,66.88
2019-06-07T21:46:12.079Z,66.97
2019-06-07T21:47:28.393Z,66.78
2019-06-07T21:48:38.552Z,66.97
2019-06-07T21:49:48.694Z,66.88
2019-06-07T21:50:58.816Z,66.97
2019-06-07T21:52:11.211Z,66.88
2019-06-07T21:53:21.390Z,66.78
2019-06-07T21:54:31.548Z,66.78
2019-06-07T21:55:41.712Z,66.97
2019-06-07T21:56:51.594Z,66.97
2019-06-07T21:58:03.038Z,67.01
2019-06-07T21:59:15.890Z,67.11
2019-06-07T22:00:26.016Z,67.3
2019-06-07T22:01:36.248Z,67.49
2019-06-07T22:02:46.414Z,67.36
2019-06-07T22:03:56.557Z,67.3
2019-06-07T22:05:09.466Z,67.4
2019-06-07T22:06:19.910Z,67.27
2019-06-07T22:07:29.701Z,67.36
2019-06-07T22:08:39.855Z,67.07
2019-06-07T22:09:50.281Z,67.75
2019-06-07T22:11:00.503Z,67.75
2019-06-07T22:12:14.237Z,67.94
2019-06-07T22:13:24.623Z,67.94
2019-06-07T22:14:34.774Z,67.75
2019-06-07T22:15:44.932Z,67.65
2019-06-07T22:16:55.058Z,67.94
2019-06-07T22:18:06.929Z,67.85
2019-06-07T22:19:19.711Z,68.23
2019-06-07T22:20:29.860Z,68.23
2019-06-07T22:21:40.014Z,68.13
2019-06-07T22:23:06.451Z,68.43
2019-06-07T22:24:17.842Z,68.71
2019-06-07T22:25:27.984Z,68.81
2019-06-07T22:26:38.169Z,68.71
2019-06-07T22:27:50.436Z,68.81
2019-06-07T22:29:04.002Z,68.04
2019-06-07T22:30:15.393Z,68.43
2019-06-07T22:31:34.041Z,68.43
2019-06-07T22:32:48.914Z,68.43
2019-06-07T22:34:00.488Z,69.97
2019-06-07T22:35:14.995Z,69.74
2019-06-07T22:36:26.415Z,69.26
2019-06-07T22:37:36.552Z,69.45
2019-06-07T22:38:46.715Z,69.64
2019-06-07T22:39:56.917Z,69.55
2019-06-07T22:41:07.275Z,70.57
2019-06-07T22:42:19.387Z,71.92
2019-06-07T22:43:29.593Z,76.42
2019-06-07T22:44:42.516Z,78.92
2019-06-07T22:45:52.698Z,80.14
2019-06-07T22:47:03.052Z,82.02
2019-06-07T22:48:13.875Z,82.85
2019-06-07T22:49:25.373Z,84.1
2019-06-07T22:50:35.568Z,84.16
2019-06-07T22:51:45.769Z,84.98
2019-06-07T22:53:11.981Z,85.17
2019-06-07T22:54:23.284Z,85.75
2019-06-07T22:55:33.418Z,86.99
2019-06-07T22:56:43.539Z,86.71
2019-06-07T22:57:53.699Z,86.8
2019-06-07T22:59:03.875Z,86.52
2019-06-07T23:00:23.494Z,86.8
2019-06-07T23:01:33.613Z,87.67
2019-06-07T23:02:43.385Z,87.29
2019-06-07T23:03:53.535Z,87.09
2019-06-07T23:05:08.409Z,86.71
2019-06-07T23:06:21.172Z,86.13
2019-06-07T23:07:31.308Z,86.04
2019-06-07T23:08:41.443Z,86.32
2019-06-07T23:09:51.206Z,85.84
2019-06-07T23:11:01.321Z,85.75
2019-06-07T23:12:12.950Z,85.46
2019-06-07T23:13:23.278Z,85.07
2019-06-07T23:14:33.405Z,85.55
2019-06-07T23:15:43.646Z,85.36
2019-06-07T23:16:58.188Z,85.46
2019-06-07T23:18:09.373Z,84.98
2019-06-07T23:19:20.841Z,84.78
2019-06-07T23:20:30.702Z,84.69
2019-06-07T23:21:40.858Z,84.69
2019-06-07T23:22:51.054Z,85.65
2019-06-07T23:24:01.198Z,85.65
2019-06-07T23:25:12.485Z,85.55
2019-06-07T23:26:29.866Z,85.46
2019-06-07T23:27:39.647Z,84.59
2019-06-07T23:28:49.777Z,84.4
2019-06-07T23:29:59.891Z,85.55
2019-06-07T23:31:19.038Z,84.84
2019-06-07T23:32:29.179Z,84.4
2019-06-07T23:33:39.298Z,84.69
2019-06-07T23:34:49.423Z,85.03
2019-06-07T23:35:59.565Z,84.74
2019-06-07T23:37:10.948Z,84.26
2019-06-07T23:38:23.684Z,84.26
2019-06-07T23:39:33.821Z,84.36
2019-06-07T23:40:43.947Z,84.94
2019-06-07T23:41:54.085Z,84.26
2019-06-07T23:43:04.187Z,84.17
2019-06-07T23:44:15.762Z,83.78
2019-06-07T23:45:27.060Z,84.07
2019-06-07T23:46:37.160Z,83.69
2019-06-07T23:47:46.930Z,83.59
2019-06-07T23:48:57.064Z,83.4
2019-06-07T23:50:07.257Z,83.11
2019-06-07T23:51:20.252Z,83.11
2019-06-07T23:52:30.368Z,83.4
2019-06-07T23:53:40.245Z,82.92
2019-06-07T23:54:50.356Z,82.92
2019-06-07T23:56:00.468Z,83.11
2019-06-07T23:57:12.015Z,82.82
2019-06-07T23:58:25.704Z,83.01
2019-06-07T23:59:35.835Z,83.01
